首页
METAR-TAF:

METAR-TAF

机场 :

Beaver Falls, 宾夕法尼亚州, 美国

纬度: 40-46N, 经度: 080-24W, 海拔: 382米

当前天气观测

该预报发布于17分钟前的04:56 UTC
静风
温度 6°C
湿度 93%
气压 1010 hPa
能見度: 4.0公里
阴天层高于400英尺
轻雾

METAR: KBVI 260456Z AUTO 00000KT 2 1/2SM BR OVC004 06/05 A2982 RMK AO2 T00570046

时间: 00:13 (05:13 UTC)

预报

该预报发布于1小时和45分钟前的03:28 UTC
预报有效从26日的 03点(UTC)到 26日的 24点(UTC)
风速3节,风向北转东北
能見度: 8.0公里
阴天层高于1000英尺
小雨, 轻雾
从 26日的 0500点(UTC)
风速节,风向
能見度: 3.2公里
阴天层高于400英尺
轻雾
从 26日的 1400点(UTC)
风速3节,风向西南
能見度: 10公里
阴天层高于1000英尺
从 26日的 1900点(UTC)
风速5节,风向南转西南
能見度: 8.0公里
阴天层高于1000英尺
小雨

TAF: KBVI 260328Z 2603/2624 03003KT 5SM -RA BR OVC010 FM260500 00000KT 2SM BR OVC004 FM261400 23003KT P6SM OVC010 FM261900 21005KT 5SM -RA OVC010

超过4000个机场的气象观测和天气预报(METAR&TAF报告)。

可查询的气象台以黄色和红色小点在地图上表示。

将鼠标移到小点上方,可查看气象台名称。

然后点击查看天气观测和预报。

如需切换地图:点击带黑十字的绿色按钮放大地图;点击带横线的绿色按钮缩小地图;或者点击绿色箭头查看邻近地区的地图。


METAR-TAF: